Terminal Aerodrome Forecast
Issued by NWS Sterling, VA

Current Version | Previous Version | Graphics & Text | Print | Product List | Glossary On
Versions: 1 2 3 4 5 6 7 8 9 10 11 12 13 14 15 16 17 18 19 20 21 22 23 24 25 26
000
FTUS41 KLWX 250854 AAA
TAFIAD
TAF AMD
KIAD 250854Z 2509/2612 02007KT 2SM -RA BR BKN005 OVC015
     FM251000 02007KT 5SM BR BKN005 OVC015
     FM251300 35006KT 6SM BR BKN008 OVC015
     FM251700 33008KT P6SM BKN015 OVC050
     FM252100 33008G16KT P6SM BKN025 BKN050
     FM260100 32010G18KT P6SM SCT050 SCT250=

USA.gov is the U.S. government's official web portal to all federal, state and local government web resources and services.